sensor_id;sensor_type;location;lat;lon;timestamp;P1;durP1;ratioP1;P2;durP2;ratioP2
57323;SDS011;43160;51.008;18.248;2023-04-03T00:03:56;8.80;;;2.70;;
57323;SDS011;43160;51.008;18.248;2023-04-03T00:13:40;0.70;;;0.70;;
57323;SDS011;43160;51.008;18.248;2023-04-03T00:23:25;5.70;;;1.70;;
57323;SDS011;43160;51.008;18.248;2023-04-03T00:33:09;7.30;;;2.80;;
57323;SDS011;43160;51.008;18.248;2023-04-03T00:42:59;7.60;;;2.10;;
57323;SDS011;43160;51.008;18.248;2023-04-03T00:53:07;17.80;;;1.80;;
57323;SDS011;43160;51.008;18.248;2023-04-03T01:03:05;21.90;;;3.10;;
57323;SDS011;43160;51.008;18.248;2023-04-03T01:12:50;8.60;;;2.20;;
57323;SDS011;43160;51.008;18.248;2023-04-03T01:33:04;8.60;;;2.60;;
57323;SDS011;43160;51.008;18.248;2023-04-03T01:42:48;9.80;;;2.10;;
57323;SDS011;43160;51.008;18.248;2023-04-03T01:52:31;14.70;;;2.80;;
57323;SDS011;43160;51.008;18.248;2023-04-03T02:02:15;11.40;;;2.90;;
57323;SDS011;43160;51.008;18.248;2023-04-03T02:11:58;19.70;;;3.00;;
57323;SDS011;43160;51.008;18.248;2023-04-03T02:21:41;17.10;;;3.00;;
57323;SDS011;43160;51.008;18.248;2023-04-03T02:31:25;17.30;;;4.30;;
57323;SDS011;43160;51.008;18.248;2023-04-03T02:41:09;16.90;;;5.00;;
57323;SDS011;43160;51.008;18.248;2023-04-03T02:50:53;16.00;;;4.00;;
57323;SDS011;43160;51.008;18.248;2023-04-03T03:00:37;9.20;;;2.90;;
57323;SDS011;43160;51.008;18.248;2023-04-03T03:10:20;17.70;;;5.50;;
57323;SDS011;43160;51.008;18.248;2023-04-03T03:20:04;19.30;;;5.60;;
57323;SDS011;43160;51.008;18.248;2023-04-03T03:29:49;16.70;;;4.80;;
57323;SDS011;43160;51.008;18.248;2023-04-03T03:39:32;17.40;;;4.10;;
57323;SDS011;43160;51.008;18.248;2023-04-03T03:49:15;14.30;;;4.90;;
57323;SDS011;43160;51.008;18.248;2023-04-03T03:58:58;13.20;;;3.50;;
57323;SDS011;43160;51.008;18.248;2023-04-03T04:08:42;13.50;;;5.20;;
57323;SDS011;43160;51.008;18.248;2023-04-03T04:18:25;8.20;;;3.30;;
57323;SDS011;43160;51.008;18.248;2023-04-03T04:28:12;14.70;;;4.50;;
57323;SDS011;43160;51.008;18.248;2023-04-03T04:37:56;14.70;;;4.40;;
57323;SDS011;43160;51.008;18.248;2023-04-03T04:47:41;13.30;;;3.70;;
57323;SDS011;43160;51.008;18.248;2023-04-03T04:57:25;14.30;;;5.20;;
57323;SDS011;43160;51.008;18.248;2023-04-03T05:07:08;15.10;;;6.10;;
57323;SDS011;43160;51.008;18.248;2023-04-03T05:16:52;15.60;;;6.00;;
57323;SDS011;43160;51.008;18.248;2023-04-03T05:26:37;24.10;;;5.70;;
57323;SDS011;43160;51.008;18.248;2023-04-03T05:36:21;15.80;;;7.50;;
57323;SDS011;43160;51.008;18.248;2023-04-03T05:46:09;16.10;;;3.40;;
57323;SDS011;43160;51.008;18.248;2023-04-03T05:55:54;11.50;;;4.50;;
57323;SDS011;43160;51.008;18.248;2023-04-03T06:05:38;16.30;;;5.10;;
57323;SDS011;43160;51.008;18.248;2023-04-03T06:15:21;15.50;;;4.10;;
57323;SDS011;43160;51.008;18.248;2023-04-03T06:25:04;12.80;;;4.40;;
57323;SDS011;43160;51.008;18.248;2023-04-03T06:34:48;15.30;;;3.40;;
57323;SDS011;43160;51.008;18.248;2023-04-03T06:44:36;14.70;;;4.00;;
57323;SDS011;43160;51.008;18.248;2023-04-03T06:54:21;16.90;;;4.00;;
57323;SDS011;43160;51.008;18.248;2023-04-03T07:04:06;14.20;;;3.80;;
57323;SDS011;43160;51.008;18.248;2023-04-03T07:13:51;11.50;;;4.00;;
57323;SDS011;43160;51.008;18.248;2023-04-03T07:31:05;16.10;;;3.10;;
57323;SDS011;43160;51.008;18.248;2023-04-03T07:40:52;8.50;;;2.20;;
57323;SDS011;43160;51.008;18.248;2023-04-03T07:50:41;12.90;;;3.30;;
57323;SDS011;43160;51.008;18.248;2023-04-03T08:00:24;6.00;;;1.90;;
57323;SDS011;43160;51.008;18.248;2023-04-03T08:10:09;11.80;;;3.10;;
57323;SDS011;43160;51.008;18.248;2023-04-03T08:19:54;3.40;;;1.30;;
57323;SDS011;43160;51.008;18.248;2023-04-03T08:29:37;6.10;;;2.10;;
57323;SDS011;43160;51.008;18.248;2023-04-03T08:39:21;6.10;;;1.50;;
57323;SDS011;43160;51.008;18.248;2023-04-03T08:49:30;6.30;;;1.60;;
57323;SDS011;43160;51.008;18.248;2023-04-03T08:59:18;8.80;;;2.20;;
57323;SDS011;43160;51.008;18.248;2023-04-03T09:09:13;9.00;;;2.40;;
57323;SDS011;43160;51.008;18.248;2023-04-03T09:19:58;6.60;;;1.90;;
57323;SDS011;43160;51.008;18.248;2023-04-03T09:30:15;11.60;;;2.30;;
57323;SDS011;43160;51.008;18.248;2023-04-03T10:00:00;10.60;;;2.60;;
57323;SDS011;43160;51.008;18.248;2023-04-03T10:10:02;6.00;;;1.80;;
57323;SDS011;43160;51.008;18.248;2023-04-03T10:41:17;7.90;;;2.40;;
57323;SDS011;43160;51.008;18.248;2023-04-03T11:02:54;14.50;;;2.90;;
57323;SDS011;43160;51.008;18.248;2023-04-03T11:13:12;11.50;;;2.10;;
57323;SDS011;43160;51.008;18.248;2023-04-03T11:30:52;14.30;;;2.60;;
57323;SDS011;43160;51.008;18.248;2023-04-03T11:41:09;9.40;;;2.50;;
57323;SDS011;43160;51.008;18.248;2023-04-03T12:01:04;11.40;;;2.30;;
57323;SDS011;43160;51.008;18.248;2023-04-03T12:21:23;7.90;;;2.40;;
57323;SDS011;43160;51.008;18.248;2023-04-03T12:53:49;7.70;;;2.00;;
57323;SDS011;43160;51.008;18.248;2023-04-03T13:03:48;8.50;;;2.10;;
57323;SDS011;43160;51.008;18.248;2023-04-03T13:13:56;11.80;;;2.80;;
57323;SDS011;43160;51.008;18.248;2023-04-03T13:23:45;8.90;;;2.90;;
57323;SDS011;43160;51.008;18.248;2023-04-03T13:33:43;9.20;;;3.10;;
57323;SDS011;43160;51.008;18.248;2023-04-03T13:43:51;7.40;;;2.50;;
57323;SDS011;43160;51.008;18.248;2023-04-03T13:53:47;9.10;;;2.50;;
57323;SDS011;43160;51.008;18.248;2023-04-03T14:03:59;12.60;;;1.80;;
57323;SDS011;43160;51.008;18.248;2023-04-03T14:13:46;11.40;;;3.50;;
57323;SDS011;43160;51.008;18.248;2023-04-03T14:23:37;8.70;;;2.50;;
57323;SDS011;43160;51.008;18.248;2023-04-03T14:33:23;8.80;;;2.90;;
57323;SDS011;43160;51.008;18.248;2023-04-03T14:35:49;9.40;;;2.90;;
57323;SDS011;43160;51.008;18.248;2023-04-03T14:45:40;6.00;;;2.40;;
57323;SDS011;43160;51.008;18.248;2023-04-03T14:55:24;9.10;;;2.10;;
57323;SDS011;43160;51.008;18.248;2023-04-03T15:05:11;7.00;;;2.40;;
57323;SDS011;43160;51.008;18.248;2023-04-03T15:15:05;8.20;;;2.50;;
57323;SDS011;43160;51.008;18.248;2023-04-03T15:24:49;9.50;;;2.60;;
57323;SDS011;43160;51.008;18.248;2023-04-03T15:34:34;4.10;;;1.70;;
57323;SDS011;43160;51.008;18.248;2023-04-03T15:44:19;5.80;;;2.00;;
57323;SDS011;43160;51.008;18.248;2023-04-03T15:54:06;8.80;;;2.40;;
57323;SDS011;43160;51.008;18.248;2023-04-03T16:03:48;8.40;;;2.30;;
57323;SDS011;43160;51.008;18.248;2023-04-03T16:13:33;6.30;;;2.40;;
57323;SDS011;43160;51.008;18.248;2023-04-03T16:23:17;8.60;;;3.00;;
57323;SDS011;43160;51.008;18.248;2023-04-03T16:33:05;9.30;;;3.00;;
57323;SDS011;43160;51.008;18.248;2023-04-03T16:42:47;12.80;;;2.10;;
57323;SDS011;43160;51.008;18.248;2023-04-03T16:52:34;15.90;;;2.40;;
57323;SDS011;43160;51.008;18.248;2023-04-03T17:02:18;11.80;;;2.20;;
57323;SDS011;43160;51.008;18.248;2023-04-03T17:12:02;10.60;;;2.20;;
57323;SDS011;43160;51.008;18.248;2023-04-03T17:21:45;9.20;;;3.10;;
57323;SDS011;43160;51.008;18.248;2023-04-03T17:31:30;8.90;;;2.00;;
57323;SDS011;43160;51.008;18.248;2023-04-03T17:41:14;9.40;;;2.70;;
57323;SDS011;43160;51.008;18.248;2023-04-03T17:51:04;6.30;;;2.70;;
57323;SDS011;43160;51.008;18.248;2023-04-03T18:01:06;14.20;;;3.70;;
57323;SDS011;43160;51.008;18.248;2023-04-03T18:10:55;13.60;;;3.50;;
57323;SDS011;43160;51.008;18.248;2023-04-03T18:27:57;12.00;;;4.10;;
57323;SDS011;43160;51.008;18.248;2023-04-03T18:37:42;10.20;;;3.90;;
57323;SDS011;43160;51.008;18.248;2023-04-03T18:47:26;12.50;;;3.80;;
57323;SDS011;43160;51.008;18.248;2023-04-03T18:57:10;11.50;;;3.00;;
57323;SDS011;43160;51.008;18.248;2023-04-03T19:06:55;5.30;;;1.70;;
57323;SDS011;43160;51.008;18.248;2023-04-03T19:16:38;10.70;;;3.00;;
57323;SDS011;43160;51.008;18.248;2023-04-03T19:26:23;17.10;;;4.30;;
57323;SDS011;43160;51.008;18.248;2023-04-03T19:36:11;11.80;;;4.70;;
57323;SDS011;43160;51.008;18.248;2023-04-03T19:46:15;12.90;;;4.60;;
57323;SDS011;43160;51.008;18.248;2023-04-03T19:56:00;11.40;;;3.00;;
57323;SDS011;43160;51.008;18.248;2023-04-03T20:05:46;12.50;;;3.30;;
57323;SDS011;43160;51.008;18.248;2023-04-03T20:15:37;12.80;;;4.30;;
57323;SDS011;43160;51.008;18.248;2023-04-03T20:25:41;18.00;;;3.30;;
57323;SDS011;43160;51.008;18.248;2023-04-03T20:35:28;9.70;;;3.40;;
57323;SDS011;43160;51.008;18.248;2023-04-03T20:45:16;10.50;;;3.00;;
57323;SDS011;43160;51.008;18.248;2023-04-03T20:55:01;10.20;;;3.20;;
57323;SDS011;43160;51.008;18.248;2023-04-03T21:04:50;18.60;;;2.50;;
57323;SDS011;43160;51.008;18.248;2023-04-03T21:23:15;8.30;;;2.70;;
57323;SDS011;43160;51.008;18.248;2023-04-03T21:32:59;17.90;;;4.30;;
57323;SDS011;43160;51.008;18.248;2023-04-03T21:42:42;6.10;;;2.00;;
57323;SDS011;43160;51.008;18.248;2023-04-03T21:52:27;10.90;;;3.30;;
57323;SDS011;43160;51.008;18.248;2023-04-03T22:02:11;5.40;;;2.00;;
57323;SDS011;43160;51.008;18.248;2023-04-03T22:11:55;8.10;;;2.30;;
57323;SDS011;43160;51.008;18.248;2023-04-03T22:21:41;8.10;;;2.80;;
57323;SDS011;43160;51.008;18.248;2023-04-03T22:31:25;1.10;;;0.80;;
57323;SDS011;43160;51.008;18.248;2023-04-03T22:41:11;6.80;;;1.80;;
57323;SDS011;43160;51.008;18.248;2023-04-03T22:51:05;5.70;;;2.60;;
57323;SDS011;43160;51.008;18.248;2023-04-03T23:01:11;11.40;;;3.50;;
57323;SDS011;43160;51.008;18.248;2023-04-03T23:11:00;15.30;;;4.20;;
57323;SDS011;43160;51.008;18.248;2023-04-03T23:20:54;9.50;;;4.70;;
57323;SDS011;43160;51.008;18.248;2023-04-03T23:30:41;15.90;;;5.80;;
57323;SDS011;43160;51.008;18.248;2023-04-03T23:40:25;17.00;;;5.80;;
57323;SDS011;43160;51.008;18.248;2023-04-03T23:50:09;15.90;;;4.10;;
57323;SDS011;43160;51.008;18.248;2023-04-03T23:59:53;12.60;;;3.20;;
